createdAt,value
2019-04-11T00:00:27.962Z,19.56
2019-04-11T00:01:53.053Z,19.55
2019-04-11T00:02:29.124Z,19.56
2019-04-11T00:03:27.764Z,19.55
2019-04-11T00:04:28.411Z,19.57
2019-04-11T00:05:28.821Z,19.55
2019-04-11T00:06:28.218Z,19.56
2019-04-11T00:07:28.206Z,19.53
2019-04-11T00:08:28.238Z,19.53
2019-04-11T00:09:27.775Z,19.53
2019-04-11T00:10:27.713Z,19.54
2019-04-11T00:11:28.345Z,19.54
2019-04-11T00:12:27.680Z,19.56
2019-04-11T00:13:36.630Z,19.54
2019-04-11T00:14:27.761Z,19.54
2019-04-11T00:15:29.012Z,19.52
2019-04-11T00:16:29.115Z,19.54
2019-04-11T00:17:28.294Z,19.52
2019-04-11T00:18:28.116Z,19.54
2019-04-11T00:19:27.929Z,19.51
2019-04-11T00:20:28.611Z,19.52
2019-04-11T00:21:29.032Z,19.52
2019-04-11T00:22:27.934Z,19.51
2019-04-11T00:23:28.182Z,19.51
2019-04-11T00:24:29.287Z,19.48
2019-04-11T00:25:27.683Z,19.5
2019-04-11T00:26:28.759Z,19.51
2019-04-11T00:27:29.010Z,19.48
2019-04-11T00:28:28.054Z,19.5
2019-04-11T00:29:28.374Z,19.5
2019-04-11T00:30:28.380Z,19.5
2019-04-11T00:31:28.686Z,19.48
2019-04-11T00:32:27.733Z,19.47
2019-04-11T00:33:27.702Z,19.45
2019-04-11T00:34:29.164Z,19.5
2019-04-11T00:35:28.109Z,19.48
2019-04-11T00:36:28.630Z,19.47
2019-04-11T00:37:27.738Z,19.47
2019-04-11T00:38:27.951Z,19.46
2019-04-11T00:39:28.027Z,19.47
2019-04-11T00:40:29.246Z,19.44
2019-04-11T00:41:28.362Z,19.45
2019-04-11T00:42:28.470Z,19.46
2019-04-11T00:43:45.431Z,19.46
2019-04-11T00:44:27.694Z,19.46
2019-04-11T00:45:27.772Z,19.46
2019-04-11T00:46:28.831Z,19.44
2019-04-11T00:47:27.684Z,19.44
2019-04-11T00:48:28.209Z,19.43
2019-04-11T00:49:27.767Z,19.44
2019-04-11T00:50:31.755Z,19.44
2019-04-11T00:51:27.811Z,19.43
2019-04-11T00:52:27.721Z,19.45
2019-04-11T00:53:28.108Z,19.44
2019-04-11T00:54:29.161Z,19.44
2019-04-11T00:55:27.769Z,19.45
2019-04-11T00:56:28.570Z,19.44
2019-04-11T00:57:28.781Z,19.42
2019-04-11T00:58:27.876Z,19.42
2019-04-11T00:59:27.892Z,19.42
2019-04-11T01:00:29.062Z,19.41
2019-04-11T01:01:28.287Z,19.41
2019-04-11T01:02:27.777Z,19.41
2019-04-11T01:03:28.625Z,19.41
2019-04-11T01:04:27.803Z,19.41
2019-04-11T01:05:27.811Z,19.4
2019-04-11T01:06:28.227Z,19.4
2019-04-11T01:07:27.682Z,19.37
2019-04-11T01:08:27.677Z,19.39
2019-04-11T01:09:28.653Z,19.39
2019-04-11T01:10:27.774Z,19.4
2019-04-11T01:11:28.049Z,19.39
2019-04-11T01:12:29.167Z,19.4
2019-04-11T01:13:55.709Z,19.4
2019-04-11T01:14:28.092Z,19.38
2019-04-11T01:15:27.691Z,19.39
2019-04-11T01:16:28.607Z,19.38
2019-04-11T01:17:27.902Z,19.38
2019-04-11T01:18:28.019Z,19.36
2019-04-11T01:19:29.157Z,19.38
2019-04-11T01:20:27.775Z,19.38
2019-04-11T01:21:28.664Z,19.37
2019-04-11T01:22:27.608Z,19.36
2019-04-11T01:23:29.363Z,19.37
2019-04-11T01:24:28.360Z,19.36
2019-04-11T01:25:28.663Z,19.37
2019-04-11T01:26:29.868Z,19.35
2019-04-11T01:27:27.967Z,19.35
2019-04-11T01:28:28.990Z,19.36
2019-04-11T01:29:27.910Z,19.33
2019-04-11T01:30:27.754Z,19.32
2019-04-11T01:31:27.770Z,19.35
2019-04-11T01:32:28.613Z,19.35
2019-04-11T01:33:27.934Z,19.33
2019-04-11T01:34:28.935Z,19.32
2019-04-11T01:35:29.148Z,19.35
2019-04-11T01:36:27.620Z,19.3
2019-04-11T01:37:28.250Z,19.32
2019-04-11T01:38:28.560Z,19.32
2019-04-11T01:39:29.581Z,19.31
2019-04-11T01:40:27.783Z,19.35
2019-04-11T01:41:28.930Z,19.3
2019-04-11T01:42:27.696Z,19.32
2019-04-11T01:43:30.915Z,19.29
2019-04-11T01:44:28.608Z,19.32
2019-04-11T01:45:27.731Z,19.31
2019-04-11T01:46:27.757Z,19.3
2019-04-11T01:47:29.030Z,19.3
2019-04-11T01:48:28.116Z,19.3
2019-04-11T01:49:28.544Z,19.29
2019-04-11T01:50:27.809Z,19.29
2019-04-11T01:51:27.904Z,19.29
2019-04-11T01:52:28.762Z,19.29
2019-04-11T01:53:27.880Z,19.29
2019-04-11T01:54:28.363Z,19.3
2019-04-11T01:55:28.487Z,19.29
2019-04-11T01:56:27.656Z,19.29
2019-04-11T01:57:27.939Z,19.29
2019-04-11T01:58:29.026Z,19.29
2019-04-11T01:59:27.724Z,19.29
2019-04-11T02:00:28.201Z,19.26
2019-04-11T02:01:28.724Z,19.27
2019-04-11T02:02:28.834Z,19.28
2019-04-11T02:03:27.736Z,19.29
2019-04-11T02:04:28.148Z,19.25
2019-04-11T02:05:27.768Z,19.26
2019-04-11T02:06:28.164Z,19.27
2019-04-11T02:07:29.095Z,19.25
2019-04-11T02:08:27.801Z,19.26
2019-04-11T02:09:28.573Z,19.26
2019-04-11T02:10:28.889Z,19.25
2019-04-11T02:11:27.870Z,19.26
2019-04-11T02:12:27.583Z,19.25
2019-04-11T02:13:28.204Z,19.24
2019-04-11T02:14:28.211Z,19.25
2019-04-11T02:15:28.522Z,19.26
2019-04-11T02:16:27.822Z,19.24
2019-04-11T02:17:27.645Z,19.24
2019-04-11T02:18:27.814Z,19.23
2019-04-11T02:19:28.252Z,19.24
2019-04-11T02:20:27.694Z,19.24
2019-04-11T02:21:27.697Z,19.23
2019-04-11T02:22:28.763Z,19.24
2019-04-11T02:23:29.023Z,19.25
2019-04-11T02:24:28.191Z,19.22
2019-04-11T02:25:28.401Z,19.23
2019-04-11T02:26:27.911Z,19.2
2019-04-11T02:27:27.789Z,19.25
2019-04-11T02:28:29.018Z,19.23
2019-04-11T02:29:27.896Z,19.23
2019-04-11T02:30:31.455Z,19.23
2019-04-11T02:31:28.460Z,19.23
2019-04-11T02:32:29.577Z,19.22
2019-04-11T02:33:27.690Z,19.21
2019-04-11T02:34:29.943Z,19.21
2019-04-11T02:35:29.105Z,19.21
2019-04-11T02:36:38.373Z,19.21
2019-04-11T02:37:34.692Z,19.22
2019-04-11T02:38:34.824Z,19.18
2019-04-11T02:39:35.939Z,19.18
2019-04-11T02:40:33.085Z,19.18
2019-04-11T02:41:38.031Z,19.21
2019-04-11T02:42:28.001Z,19.18
2019-04-11T02:43:29.829Z,19.22
2019-04-11T02:46:26.620Z,19.2
2019-04-11T02:47:09.336Z,19.17
2019-04-11T02:47:44.424Z,19.17
2019-04-11T02:48:35.494Z,19.16
2019-04-11T02:49:28.171Z,19.17
2019-04-11T02:50:27.637Z,19.17
2019-04-11T02:51:31.413Z,19.18
2019-04-11T02:52:28.855Z,19.17
2019-04-11T02:53:34.667Z,19.16
2019-04-11T02:54:33.621Z,19.15
2019-04-11T02:55:33.559Z,19.14
2019-04-11T02:56:28.098Z,19.16
2019-04-11T02:57:27.695Z,19.15
2019-04-11T02:58:32.009Z,19.16
2019-04-11T02:59:30.843Z,19.13
2019-04-11T03:00:37.578Z,19.15
2019-04-11T03:01:28.695Z,19.16
2019-04-11T03:02:28.265Z,19.15
2019-04-11T03:03:34.173Z,19.14
2019-04-11T03:04:31.842Z,19.16
2019-04-11T03:05:36.905Z,19.14
2019-04-11T03:06:28.183Z,19.15
2019-04-11T03:07:27.725Z,19.14
2019-04-11T03:08:40.459Z,19.13
2019-04-11T03:09:32.017Z,19.13
2019-04-11T03:10:31.263Z,19.12
2019-04-11T03:11:34.694Z,19.12
2019-04-11T03:12:36.439Z,19.13
2019-04-11T03:13:29.870Z,19.13
2019-04-11T03:16:32.532Z,19.13
2019-04-11T03:17:48.585Z,19.14
2019-04-11T03:19:33.658Z,19.12
2019-04-11T03:21:02.461Z,19.13
2019-04-11T03:21:46.665Z,19.11
2019-04-11T03:22:27.646Z,19.11
2019-04-11T03:23:28.766Z,19.12
2019-04-11T03:24:36.227Z,19.11
2019-04-11T03:25:33.214Z,19.1
2019-04-11T03:26:29.374Z,19.11
2019-04-11T03:27:35.406Z,19.09
2019-04-11T03:28:40.674Z,19.1
2019-04-11T03:29:37.966Z,19.11
2019-04-11T03:32:48.122Z,19.11
2019-04-11T03:43:24.010Z,19.09
2019-04-11T03:45:32.413Z,19.08
2019-04-11T03:46:47.390Z,19.09
2019-04-11T03:47:27.587Z,19.1
2019-04-11T03:49:20.531Z,19.13
2019-04-11T03:50:03.627Z,19.13
2019-04-11T03:50:40.190Z,19.14
2019-04-11T03:51:30.403Z,19.15
2019-04-11T03:52:28.606Z,19.16
2019-04-11T03:53:37.424Z,19.16
2019-04-11T03:54:35.885Z,19.16
2019-04-11T03:55:32.678Z,19.17
2019-04-11T03:56:28.891Z,19.17
2019-04-11T03:57:29.479Z,19.2
2019-04-11T03:58:33.751Z,19.22
2019-04-11T03:59:31.922Z,19.23
2019-04-11T04:00:44.526Z,19.25
2019-04-11T04:01:27.588Z,19.25
2019-04-11T04:02:28.496Z,19.27
2019-04-11T04:03:31.325Z,19.28
2019-04-11T04:04:29.394Z,19.29
2019-04-11T04:05:41.101Z,19.3
2019-04-11T04:06:32.527Z,19.32
2019-04-11T04:07:29.912Z,19.36
2019-04-11T04:08:31.762Z,19.35
2019-04-11T04:09:29.735Z,19.36
2019-04-11T04:10:29.303Z,19.38
2019-04-11T04:11:35.027Z,19.41
2019-04-11T04:12:35.321Z,19.4
2019-04-11T04:13:32.256Z,19.42
2019-04-11T04:14:29.252Z,19.47
2019-04-11T04:16:25.778Z,19.45
2019-04-11T04:16:53.112Z,19.46
2019-04-11T04:17:28.313Z,19.5
2019-04-11T04:18:31.745Z,19.52
2019-04-11T04:19:33.137Z,19.53
2019-04-11T04:20:29.814Z,19.55
2019-04-11T04:21:33.290Z,19.56
2019-04-11T04:22:32.372Z,19.57
2019-04-11T04:23:35.768Z,19.6
2019-04-11T04:24:43.093Z,19.59
2019-04-11T04:25:29.201Z,19.58
2019-04-11T04:26:33.667Z,19.6
2019-04-11T04:27:34.671Z,19.65
2019-04-11T04:28:35.841Z,19.65
2019-04-11T04:29:29.785Z,19.65
2019-04-11T04:30:30.217Z,19.69
2019-04-11T04:31:28.897Z,19.67
2019-04-11T04:32:33.136Z,19.7
2019-04-11T04:33:40.175Z,19.7
2019-04-11T04:34:28.744Z,19.71
2019-04-11T04:35:29.032Z,19.73
2019-04-11T04:36:34.911Z,19.76
2019-04-11T04:37:34.797Z,19.75
2019-04-11T04:38:33.946Z,19.77
2019-04-11T04:39:31.562Z,19.79
2019-04-11T04:42:08.793Z,19.82
2019-04-11T04:42:55.204Z,19.82
2019-04-11T04:43:36.592Z,19.84
2019-04-11T04:44:33.386Z,19.82
2019-04-11T04:48:03.123Z,19.86
2019-04-11T04:48:35.211Z,19.88
2019-04-11T04:49:34.861Z,19.87
2019-04-11T04:50:31.257Z,19.88
2019-04-11T04:51:32.001Z,19.89
2019-04-11T04:52:38.332Z,19.94
2019-04-11T04:53:35.447Z,19.91
2019-04-11T04:54:36.431Z,19.94
2019-04-11T04:55:30.652Z,19.94
2019-04-11T04:56:38.754Z,19.95
2019-04-11T04:57:37.864Z,19.95
2019-04-11T04:58:29.601Z,19.95
2019-04-11T04:59:33.875Z,19.96
2019-04-11T05:00:32.323Z,19.97
2019-04-11T05:01:31.824Z,19.97
2019-04-11T05:02:35.512Z,19.99
2019-04-11T05:03:27.689Z,19.99
2019-04-11T05:04:31.914Z,19.99
2019-04-11T05:05:31.263Z,19.99
2019-04-11T05:06:29.015Z,19.99
2019-04-11T05:07:45.943Z,20.01
2019-04-11T05:08:27.880Z,20
2019-04-11T05:09:27.904Z,20
2019-04-11T05:10:28.657Z,20.01
2019-04-11T05:11:28.570Z,20.02
2019-04-11T05:12:28.355Z,20.02
2019-04-11T05:13:30.236Z,20.02
2019-04-11T05:14:31.921Z,20.03
2019-04-11T05:15:28.500Z,20.03
2019-04-11T05:16:27.582Z,20.03
2019-04-11T05:17:29.308Z,20.04
2019-04-11T05:18:28.096Z,20.03
2019-04-11T05:19:30.206Z,20.03
2019-04-11T05:20:28.320Z,20.04
2019-04-11T05:21:27.812Z,20.02
2019-04-11T05:22:27.805Z,20.04
2019-04-11T05:23:27.827Z,20.03
2019-04-11T05:24:28.553Z,20.04
2019-04-11T05:25:28.753Z,20.05
2019-04-11T05:26:28.050Z,20.05
2019-04-11T05:27:27.483Z,20.04
2019-04-11T05:28:27.853Z,20.06
2019-04-11T05:29:27.680Z,20.04
2019-04-11T05:30:27.615Z,20.02
2019-04-11T05:31:27.545Z,20.04
2019-04-11T05:32:29.294Z,20.04
2019-04-11T05:33:27.564Z,20.06
2019-04-11T05:34:28.206Z,20.04
2019-04-11T05:35:27.727Z,20.03
2019-04-11T05:36:28.528Z,20.03
2019-04-11T05:37:27.633Z,20.04
2019-04-11T05:38:27.661Z,20.04
2019-04-11T05:39:27.834Z,20.04
2019-04-11T05:40:28.347Z,20.03
2019-04-11T05:41:27.719Z,20.04
2019-04-11T05:42:27.686Z,20.04
2019-04-11T05:43:41.789Z,20.04
2019-04-11T05:44:28.682Z,20.03
2019-04-11T05:45:27.631Z,20.04
2019-04-11T05:47:00.952Z,20.03
2019-04-11T05:47:27.892Z,20.04
2019-04-11T05:48:28.823Z,20.04
2019-04-11T05:49:43.289Z,20.03
2019-04-11T05:50:28.642Z,20.03
2019-04-11T05:51:47.714Z,20.05
2019-04-11T05:52:36.773Z,20.04
2019-04-11T05:53:28.154Z,20.03
2019-04-11T05:54:28.348Z,20.05
2019-04-11T05:55:28.259Z,20.04
2019-04-11T05:56:28.049Z,20.02
2019-04-11T05:57:41.446Z,20.04
2019-04-11T05:58:28.389Z,20.03
2019-04-11T05:59:27.729Z,20.02
2019-04-11T06:00:28.593Z,20.02
2019-04-11T06:01:29.297Z,20.02
2019-04-11T06:02:29.217Z,20.02
2019-04-11T06:03:28.537Z,20.01
2019-04-11T06:04:30.482Z,20.03
2019-04-11T06:05:39.440Z,20.03
2019-04-11T06:06:41.819Z,20.03
2019-04-11T06:07:27.521Z,20.01
2019-04-11T06:08:32.505Z,20.02
2019-04-11T06:09:41.763Z,20.03
2019-04-11T06:10:28.464Z,20.02
2019-04-11T06:11:28.691Z,20.04
2019-04-11T06:12:27.770Z,20
2019-04-11T06:13:28.938Z,20.01
2019-04-11T06:14:27.670Z,20.03
2019-04-11T06:15:27.733Z,20.02
2019-04-11T06:16:55.820Z,20.01
2019-04-11T06:17:27.674Z,20.01
2019-04-11T06:18:45.726Z,20.02
2019-04-11T06:19:28.424Z,20.01
2019-04-11T06:20:29.310Z,20.03
2019-04-11T06:21:28.548Z,20.01
2019-04-11T06:22:27.650Z,20.02
2019-04-11T06:23:27.692Z,20.02
2019-04-11T06:24:28.155Z,20.04
2019-04-11T06:25:38.993Z,20.01
2019-04-11T06:26:28.643Z,20.03
2019-04-11T06:27:28.872Z,20.01
2019-04-11T06:28:29.020Z,20.01
2019-04-11T06:29:31.325Z,20.02
2019-04-11T06:30:28.612Z,20.01
2019-04-11T06:31:27.548Z,20.03
2019-04-11T06:32:28.115Z,20.02
2019-04-11T06:33:29.057Z,20.02
2019-04-11T06:34:27.667Z,20.03
2019-04-11T06:35:28.434Z,20.04
2019-04-11T06:36:30.294Z,20.02
2019-04-11T06:37:27.866Z,20.03
2019-04-11T06:38:27.704Z,20.03
2019-04-11T06:39:27.808Z,20.01
2019-04-11T06:40:29.359Z,20.01
2019-04-11T06:41:27.640Z,20.02
2019-04-11T06:42:32.011Z,20.01
2019-04-11T06:43:27.996Z,20.04
2019-04-11T06:44:28.341Z,20.03
2019-04-11T06:45:27.553Z,20.04
2019-04-11T06:46:27.616Z,20.04
2019-04-11T06:47:27.594Z,20.04
2019-04-11T06:48:27.680Z,20.03
2019-04-11T06:49:29.038Z,20.04
2019-04-11T06:50:27.652Z,20.05
2019-04-11T06:51:28.371Z,20.04
2019-04-11T06:52:28.967Z,20.02
2019-04-11T06:53:28.271Z,20.04
2019-04-11T06:54:28.871Z,20.04
2019-04-11T06:55:29.112Z,20.03
2019-04-11T06:56:27.736Z,20.03
2019-04-11T06:57:27.974Z,20.06
2019-04-11T06:58:27.788Z,20.04
2019-04-11T06:59:28.306Z,20.06
2019-04-11T07:00:27.841Z,20.05
2019-04-11T07:01:28.241Z,20.05
2019-04-11T07:02:28.284Z,20.06
2019-04-11T07:03:33.965Z,20.05
2019-04-11T07:04:27.578Z,20.06
2019-04-11T07:05:29.270Z,20.07
2019-04-11T07:06:27.553Z,20.06
2019-04-11T07:07:37.361Z,20.09
2019-04-11T07:08:27.694Z,20.06
2019-04-11T07:09:28.915Z,20.07
2019-04-11T07:10:28.911Z,20.06
2019-04-11T07:11:27.782Z,20.07
2019-04-11T07:12:28.815Z,20.07
2019-04-11T07:13:28.618Z,20.1
2019-04-11T07:14:27.658Z,20.05
2019-04-11T07:15:27.722Z,20.07
2019-04-11T07:16:27.818Z,20.07
2019-04-11T07:17:27.712Z,20.07
2019-04-11T07:18:29.349Z,20.06
2019-04-11T07:19:28.857Z,20.07
2019-04-11T07:20:27.536Z,20.1
2019-04-11T07:21:27.851Z,20.1
2019-04-11T07:22:27.529Z,20.09
2019-04-11T07:23:28.724Z,20.09
2019-04-11T07:24:28.310Z,20.09
2019-04-11T07:25:29.063Z,20.11
2019-04-11T07:26:27.654Z,20.12
2019-04-11T07:27:28.097Z,20.09
2019-04-11T07:28:27.719Z,20.09
2019-04-11T07:29:27.751Z,20.07
2019-04-11T07:30:29.045Z,20.1
2019-04-11T07:31:27.970Z,20.12
2019-04-11T07:32:28.156Z,20.11
2019-04-11T07:33:29.179Z,20.11
2019-04-11T07:34:39.998Z,20.09
2019-04-11T07:35:29.575Z,20.12
2019-04-11T07:36:27.557Z,20.1
2019-04-11T07:37:28.415Z,20.1
2019-04-11T07:38:27.560Z,20.12
2019-04-11T07:39:29.070Z,20.11
2019-04-11T07:40:33.558Z,20.12
2019-04-11T07:41:27.595Z,20.12
2019-04-11T07:42:28.116Z,20.12
2019-04-11T07:43:29.432Z,20.15
2019-04-11T07:44:32.469Z,20.15
2019-04-11T07:45:27.825Z,20.14
2019-04-11T07:46:29.136Z,20.16
2019-04-11T07:47:29.658Z,20.15
2019-04-11T07:48:27.629Z,20.16
2019-04-11T07:49:28.775Z,20.16
2019-04-11T07:50:27.852Z,20.18
2019-04-11T07:51:27.799Z,20.2
2019-04-11T07:52:36.006Z,20.2
2019-04-11T07:53:28.794Z,20.17
2019-04-11T07:54:28.301Z,20.2
2019-04-11T07:55:28.100Z,20.2
2019-04-11T07:56:27.507Z,20.21
2019-04-11T07:57:28.624Z,20.2
2019-04-11T07:58:28.749Z,20.21
2019-04-11T07:59:27.581Z,20.2
2019-04-11T08:00:54.106Z,20.22
2019-04-11T08:01:27.540Z,20.25
2019-04-11T08:02:27.557Z,20.2
2019-04-11T08:03:27.950Z,20.22
2019-04-11T08:04:27.954Z,20.24
2019-04-11T08:05:28.609Z,20.2
2019-04-11T08:06:28.987Z,20.22
2019-04-11T08:07:28.379Z,20.24
2019-04-11T08:08:27.968Z,20.24
2019-04-11T08:09:29.158Z,20.24
2019-04-11T08:10:27.632Z,20.22
2019-04-11T08:11:27.702Z,20.24
2019-04-11T08:12:27.863Z,20.22
2019-04-11T08:13:28.566Z,20.2
2019-04-11T08:14:28.847Z,20.21
2019-04-11T08:15:27.455Z,20.22
2019-04-11T08:16:29.021Z,20.21
2019-04-11T08:17:44.589Z,20.24
2019-04-11T08:18:28.671Z,20.24
2019-04-11T08:19:28.632Z,20.24
2019-04-11T08:20:27.574Z,20.27
2019-04-11T08:21:28.489Z,20.27
2019-04-11T08:22:27.485Z,20.28
2019-04-11T08:23:27.999Z,20.27
2019-04-11T08:24:30.239Z,20.28
2019-04-11T08:25:27.650Z,20.29
2019-04-11T08:26:28.631Z,20.27
2019-04-11T08:27:27.837Z,20.3
2019-04-11T08:28:29.184Z,20.3
2019-04-11T08:29:28.771Z,20.32
2019-04-11T08:30:27.729Z,20.31
2019-04-11T08:31:29.065Z,20.31
2019-04-11T08:32:27.765Z,20.31
2019-04-11T08:33:28.996Z,20.32
2019-04-11T08:34:27.499Z,20.34
2019-04-11T08:35:28.600Z,20.35
2019-04-11T08:36:27.497Z,20.35
2019-04-11T08:37:27.748Z,20.34
2019-04-11T08:38:29.121Z,20.35
2019-04-11T08:39:27.631Z,20.39
2019-04-11T08:40:28.340Z,20.39
2019-04-11T08:41:27.702Z,20.39
2019-04-11T08:42:27.669Z,20.4
2019-04-11T08:43:29.153Z,20.36
2019-04-11T08:44:28.289Z,20.39
2019-04-11T08:45:27.810Z,20.39
2019-04-11T08:46:29.095Z,20.39
2019-04-11T08:47:58.759Z,20.4
2019-04-11T08:48:29.011Z,20.42
2019-04-11T08:49:35.284Z,20.41
2019-04-11T08:50:28.481Z,20.4
2019-04-11T08:51:27.677Z,20.43
2019-04-11T08:52:28.090Z,20.43
2019-04-11T08:53:28.970Z,20.42
2019-04-11T08:54:27.503Z,20.42
2019-04-11T08:55:27.505Z,20.42
2019-04-11T08:56:29.755Z,20.42
2019-04-11T08:57:27.666Z,20.43
2019-04-11T08:58:28.958Z,20.43
2019-04-11T08:59:27.697Z,20.42
2019-04-11T09:00:28.457Z,20.42
2019-04-11T09:01:27.952Z,20.44
2019-04-11T09:02:27.591Z,20.42
2019-04-11T09:03:27.738Z,20.42
2019-04-11T09:04:27.749Z,20.42
2019-04-11T09:05:27.644Z,20.42
2019-04-11T09:06:28.605Z,20.42
2019-04-11T09:07:27.798Z,20.41
2019-04-11T09:08:27.606Z,20.43
2019-04-11T09:09:29.515Z,20.42
2019-04-11T09:10:28.431Z,20.41
2019-04-11T09:11:28.943Z,20.4
2019-04-11T09:12:28.822Z,20.41
2019-04-11T09:13:27.513Z,20.42
2019-04-11T09:14:28.703Z,20.41
2019-04-11T09:15:28.881Z,20.4
2019-04-11T09:16:27.955Z,20.42
2019-04-11T09:17:28.385Z,20.41
2019-04-11T09:18:28.298Z,20.39
2019-04-11T09:19:27.690Z,20.39
2019-04-11T09:20:27.884Z,20.41
2019-04-11T09:21:28.762Z,20.39
2019-04-11T09:22:29.319Z,20.4
2019-04-11T09:23:28.133Z,20.39
2019-04-11T09:24:27.596Z,20.36
2019-04-11T09:25:31.979Z,20.37
2019-04-11T09:26:27.928Z,20.36
2019-04-11T09:27:29.063Z,20.35
2019-04-11T09:28:27.407Z,20.34
2019-04-11T09:29:28.563Z,20.34
2019-04-11T09:30:28.777Z,20.36
2019-04-11T09:31:29.769Z,20.34
2019-04-11T09:32:28.788Z,20.33
2019-04-11T09:33:27.438Z,20.35
2019-04-11T09:34:28.293Z,20.35
2019-04-11T09:35:27.624Z,20.32
2019-04-11T09:36:30.743Z,20.33
2019-04-11T09:37:27.698Z,20.33
2019-04-11T09:38:28.746Z,20.33
2019-04-11T09:39:29.061Z,20.31
2019-04-11T09:40:28.251Z,20.32
2019-04-11T09:41:28.349Z,20.32
2019-04-11T09:42:28.572Z,20.34
2019-04-11T09:43:28.463Z,20.33
2019-04-11T09:44:28.998Z,20.3
2019-04-11T09:45:27.968Z,20.32
2019-04-11T09:46:27.389Z,20.31
2019-04-11T09:47:28.491Z,20.3
2019-04-11T09:48:27.518Z,20.3
2019-04-11T09:49:27.472Z,20.32
2019-04-11T09:50:28.833Z,20.32
2019-04-11T09:51:29.829Z,20.31
2019-04-11T09:52:27.507Z,20.31
2019-04-11T09:53:28.453Z,20.31
2019-04-11T09:54:28.449Z,20.3
2019-04-11T09:55:27.509Z,20.31
2019-04-11T09:56:27.576Z,20.32
2019-04-11T09:57:29.090Z,20.3
2019-04-11T09:58:27.770Z,20.32
2019-04-11T09:59:27.645Z,20.3
2019-04-11T10:00:30.699Z,20.3
2019-04-11T10:01:28.909Z,20.31
2019-04-11T10:02:27.708Z,20.32
2019-04-11T10:03:28.101Z,20.32
2019-04-11T10:04:27.892Z,20.3
2019-04-11T10:05:27.708Z,20.3
2019-04-11T10:06:28.314Z,20.31
2019-04-11T10:07:28.414Z,20.33
2019-04-11T10:08:27.698Z,20.3
2019-04-11T10:09:28.357Z,20.31
2019-04-11T10:10:29.103Z,20.32
2019-04-11T10:11:28.468Z,20.33
2019-04-11T10:12:27.855Z,20.32
2019-04-11T10:13:27.500Z,20.34
2019-04-11T10:14:27.529Z,20.34
2019-04-11T10:15:27.930Z,20.34
2019-04-11T10:16:28.621Z,20.34
2019-04-11T10:17:27.614Z,20.34
2019-04-11T10:18:42.702Z,20.34
2019-04-11T10:19:28.013Z,20.36
2019-04-11T10:20:28.969Z,20.35
2019-04-11T10:21:29.233Z,20.34
2019-04-11T10:22:29.299Z,20.35
2019-04-11T10:23:28.904Z,20.34
2019-04-11T10:24:27.566Z,20.36
2019-04-11T10:25:32.312Z,20.36
2019-04-11T10:26:27.952Z,20.34
2019-04-11T10:27:27.433Z,20.34
2019-04-11T10:28:27.662Z,20.34
2019-04-11T10:29:34.775Z,20.34
2019-04-11T10:30:27.622Z,20.36
2019-04-11T10:31:28.626Z,20.34
2019-04-11T10:32:27.696Z,20.35
2019-04-11T10:33:29.012Z,20.34
2019-04-11T10:34:28.111Z,20.33
2019-04-11T10:35:27.577Z,20.35
2019-04-11T10:36:27.714Z,20.34
2019-04-11T10:37:28.768Z,20.37
2019-04-11T10:38:28.872Z,20.35
2019-04-11T10:39:29.277Z,20.34
2019-04-11T10:40:28.373Z,20.37
2019-04-11T10:41:28.795Z,20.36
2019-04-11T10:42:28.902Z,20.35
2019-04-11T10:43:28.808Z,20.34
2019-04-11T10:44:27.733Z,20.33
2019-04-11T10:45:27.437Z,20.34
2019-04-11T10:46:27.393Z,20.34
2019-04-11T10:47:27.623Z,20.32
2019-04-11T10:48:47.381Z,20.33
2019-04-11T10:49:28.643Z,20.33
2019-04-11T10:50:28.637Z,20.33
2019-04-11T10:51:27.626Z,20.32
2019-04-11T10:52:28.981Z,20.33
2019-04-11T10:53:27.650Z,20.34
2019-04-11T10:54:32.601Z,20.33
2019-04-11T10:55:27.562Z,20.32
2019-04-11T10:56:28.580Z,20.32
2019-04-11T10:57:27.976Z,20.33
2019-04-11T10:58:29.472Z,20.34
2019-04-11T10:59:28.227Z,20.34
2019-04-11T11:00:27.593Z,20.34
2019-04-11T11:01:28.522Z,20.32
2019-04-11T11:02:27.551Z,20.33
2019-04-11T11:03:29.233Z,20.31
2019-04-11T11:04:27.934Z,20.32
2019-04-11T11:05:28.546Z,20.33
2019-04-11T11:06:27.623Z,20.32
2019-04-11T11:07:28.846Z,20.33
2019-04-11T11:08:27.535Z,20.32
2019-04-11T11:09:28.570Z,20.3
2019-04-11T11:10:27.968Z,20.3
2019-04-11T11:11:28.593Z,20.3
2019-04-11T11:12:27.569Z,20.31
2019-04-11T11:13:27.882Z,20.3
2019-04-11T11:14:29.134Z,20.3
2019-04-11T11:15:27.701Z,20.3
2019-04-11T11:16:43.823Z,20.32
2019-04-11T11:20:58.756Z,20.29
2019-04-11T11:21:37.295Z,20.29
2019-04-11T11:22:27.538Z,20.31
2019-04-11T11:23:27.469Z,20.29
2019-04-11T11:24:28.514Z,20.3
2019-04-11T11:25:27.828Z,20.3
2019-04-11T11:26:29.603Z,20.3
2019-04-11T11:27:27.423Z,20.3
2019-04-11T11:28:27.610Z,20.29
2019-04-11T11:29:29.115Z,20.3
2019-04-11T11:30:27.594Z,20.28
2019-04-11T11:31:28.216Z,20.3
2019-04-11T11:32:27.550Z,20.3
2019-04-11T11:33:27.525Z,20.3
2019-04-11T11:34:28.660Z,20.28
2019-04-11T11:35:42.975Z,20.3
2019-04-11T11:36:39.580Z,20.3
2019-04-11T11:37:27.574Z,20.29
2019-04-11T11:38:28.372Z,20.3
2019-04-11T11:39:27.964Z,20.31
2019-04-11T11:40:28.209Z,20.3
2019-04-11T11:41:28.287Z,20.33
2019-04-11T11:42:28.396Z,20.32
2019-04-11T11:43:27.706Z,20.33
2019-04-11T11:44:28.825Z,20.34
2019-04-11T11:45:27.922Z,20.34
2019-04-11T11:46:32.289Z,20.37
2019-04-11T11:47:41.498Z,20.36
2019-04-11T11:48:28.312Z,20.36
2019-04-11T11:50:37.588Z,20.37
2019-04-11T11:51:31.418Z,20.34
2019-04-11T11:52:37.611Z,20.36
2019-04-11T11:53:31.509Z,20.39
2019-04-11T11:54:27.538Z,20.37
2019-04-11T11:55:27.542Z,20.39
2019-04-11T11:56:27.624Z,20.39
2019-04-11T11:57:29.027Z,20.39
2019-04-11T11:58:28.105Z,20.41
2019-04-11T11:59:30.955Z,20.41
2019-04-11T12:00:27.365Z,20.4
2019-04-11T12:01:27.623Z,20.43
2019-04-11T12:02:28.741Z,20.42
2019-04-11T12:03:31.396Z,20.42
2019-04-11T12:04:34.191Z,20.43
2019-04-11T12:05:29.702Z,20.45
2019-04-11T12:06:27.420Z,20.42
2019-04-11T12:07:39.329Z,20.46
2019-04-11T12:08:28.836Z,20.44
2019-04-11T12:09:28.910Z,20.45
2019-04-11T12:10:28.311Z,20.46
2019-04-11T12:11:28.513Z,20.46
2019-04-11T12:12:27.651Z,20.47
2019-04-11T12:13:28.526Z,20.46
2019-04-11T12:14:27.758Z,20.49
2019-04-11T12:15:30.476Z,20.48
2019-04-11T12:16:28.131Z,20.48
2019-04-11T12:17:38.010Z,20.51
2019-04-11T12:18:28.860Z,20.49
2019-04-11T12:19:28.959Z,20.5
2019-04-11T12:20:27.493Z,20.53
2019-04-11T12:21:32.021Z,20.53
2019-04-11T12:22:28.849Z,20.53
2019-04-11T12:23:27.729Z,20.53
2019-04-11T12:24:28.090Z,20.51
2019-04-11T12:25:27.576Z,20.54
2019-04-11T12:26:34.127Z,20.51
2019-04-11T12:27:29.359Z,20.55
2019-04-11T12:28:27.922Z,20.53
2019-04-11T12:29:30.765Z,20.55
2019-04-11T12:30:37.497Z,20.53
2019-04-11T12:31:37.296Z,20.54
2019-04-11T12:32:28.654Z,20.57
2019-04-11T12:33:27.947Z,20.56
2019-04-11T12:34:27.653Z,20.56
2019-04-11T12:35:29.087Z,20.56
2019-04-11T12:36:28.684Z,20.57
2019-04-11T12:37:27.687Z,20.57
2019-04-11T12:38:27.563Z,20.57
2019-04-11T12:39:29.144Z,20.57
2019-04-11T12:40:27.392Z,20.59
2019-04-11T12:41:27.399Z,20.58
2019-04-11T12:42:27.532Z,20.58
2019-04-11T12:43:27.378Z,20.6
2019-04-11T12:44:30.669Z,20.6
2019-04-11T12:45:27.546Z,20.61
2019-04-11T12:46:30.399Z,20.61
2019-04-11T12:47:28.563Z,20.61
2019-04-11T12:48:27.448Z,20.63
2019-04-11T12:49:27.458Z,20.66
2019-04-11T12:50:27.511Z,20.65
2019-04-11T12:51:27.493Z,20.66
2019-04-11T12:52:27.615Z,20.68
2019-04-11T12:53:27.670Z,20.71
2019-04-11T12:54:27.604Z,20.71
2019-04-11T12:55:27.578Z,20.71
2019-04-11T12:56:27.437Z,20.73
2019-04-11T12:57:27.371Z,20.74
2019-04-11T12:58:27.459Z,20.74
2019-04-11T12:59:27.536Z,20.75
2019-04-11T13:00:27.505Z,20.77
2019-04-11T13:01:27.420Z,20.79
2019-04-11T13:02:27.497Z,20.79
2019-04-11T13:03:27.487Z,20.79
2019-04-11T13:04:27.527Z,20.8
2019-04-11T13:05:27.522Z,20.8
2019-04-11T13:06:36.019Z,20.8
2019-04-11T13:07:27.540Z,20.81
2019-04-11T13:08:27.575Z,20.85
2019-04-11T13:09:27.806Z,20.86
2019-04-11T13:10:27.505Z,20.83
2019-04-11T13:11:27.712Z,20.85
2019-04-11T13:12:27.676Z,20.88
2019-04-11T13:13:27.696Z,20.88
2019-04-11T13:14:28.436Z,20.87
2019-04-11T13:15:27.906Z,20.88
2019-04-11T13:16:27.325Z,20.88
2019-04-11T13:17:27.532Z,20.91
2019-04-11T13:18:27.458Z,20.89
2019-04-11T13:19:27.439Z,20.92